sensor_id;sensor_type;location;lat;lon;timestamp;P1;durP1;ratioP1;P2;durP2;ratioP2
2656;SDS011;1338;48.176;11.792;2024-01-06T00:00:51;24.33;;;19.20;;
2656;SDS011;1338;48.176;11.792;2024-01-06T00:03:19;21.93;;;17.80;;
2656;SDS011;1338;48.176;11.792;2024-01-06T00:05:47;23.47;;;18.50;;
2656;SDS011;1338;48.176;11.792;2024-01-06T00:08:15;24.97;;;18.73;;
2656;SDS011;1338;48.176;11.792;2024-01-06T00:10:44;23.43;;;17.93;;
2656;SDS011;1338;48.176;11.792;2024-01-06T00:13:13;22.17;;;16.40;;
2656;SDS011;1338;48.176;11.792;2024-01-06T00:15:41;24.23;;;18.17;;
2656;SDS011;1338;48.176;11.792;2024-01-06T00:18:09;23.07;;;17.47;;
2656;SDS011;1338;48.176;11.792;2024-01-06T00:20:37;23.57;;;17.57;;
2656;SDS011;1338;48.176;11.792;2024-01-06T00:23:06;20.37;;;16.17;;
2656;SDS011;1338;48.176;11.792;2024-01-06T00:25:34;19.93;;;15.87;;
2656;SDS011;1338;48.176;11.792;2024-01-06T00:28:01;22.90;;;17.37;;
2656;SDS011;1338;48.176;11.792;2024-01-06T00:30:30;25.43;;;17.27;;
2656;SDS011;1338;48.176;11.792;2024-01-06T00:32:58;25.37;;;18.33;;
2656;SDS011;1338;48.176;11.792;2024-01-06T00:35:27;21.07;;;16.30;;
2656;SDS011;1338;48.176;11.792;2024-01-06T00:37:55;22.30;;;16.07;;
2656;SDS011;1338;48.176;11.792;2024-01-06T00:40:23;19.03;;;14.90;;
2656;SDS011;1338;48.176;11.792;2024-01-06T00:42:51;21.97;;;16.80;;
2656;SDS011;1338;48.176;11.792;2024-01-06T00:45:19;19.77;;;14.97;;
2656;SDS011;1338;48.176;11.792;2024-01-06T00:47:48;22.37;;;14.40;;
2656;SDS011;1338;48.176;11.792;2024-01-06T00:50:17;18.17;;;15.30;;
2656;SDS011;1338;48.176;11.792;2024-01-06T00:52:46;19.50;;;13.83;;
2656;SDS011;1338;48.176;11.792;2024-01-06T00:55:14;17.13;;;13.83;;
2656;SDS011;1338;48.176;11.792;2024-01-06T00:57:42;16.73;;;13.90;;
2656;SDS011;1338;48.176;11.792;2024-01-06T01:00:11;14.40;;;11.80;;
2656;SDS011;1338;48.176;11.792;2024-01-06T01:02:40;14.60;;;11.57;;
2656;SDS011;1338;48.176;11.792;2024-01-06T01:05:09;12.00;;;9.87;;
2656;SDS011;1338;48.176;11.792;2024-01-06T01:07:37;12.13;;;9.43;;
2656;SDS011;1338;48.176;11.792;2024-01-06T01:10:06;13.53;;;10.90;;
2656;SDS011;1338;48.176;11.792;2024-01-06T01:12:35;15.60;;;11.43;;
2656;SDS011;1338;48.176;11.792;2024-01-06T01:15:03;13.47;;;10.23;;
2656;SDS011;1338;48.176;11.792;2024-01-06T01:17:32;13.73;;;10.27;;
2656;SDS011;1338;48.176;11.792;2024-01-06T01:20:01;11.90;;;9.50;;
2656;SDS011;1338;48.176;11.792;2024-01-06T01:22:30;13.77;;;9.07;;
2656;SDS011;1338;48.176;11.792;2024-01-06T01:24:58;11.03;;;8.90;;
2656;SDS011;1338;48.176;11.792;2024-01-06T01:27:31;10.53;;;7.50;;
2656;SDS011;1338;48.176;11.792;2024-01-06T01:29:59;8.60;;;7.30;;
2656;SDS011;1338;48.176;11.792;2024-01-06T01:32:28;8.57;;;7.00;;
2656;SDS011;1338;48.176;11.792;2024-01-06T01:34:56;9.33;;;7.00;;
2656;SDS011;1338;48.176;11.792;2024-01-06T01:37:24;9.00;;;7.57;;
2656;SDS011;1338;48.176;11.792;2024-01-06T01:39:53;7.90;;;6.20;;
2656;SDS011;1338;48.176;11.792;2024-01-06T01:42:21;8.27;;;6.60;;
2656;SDS011;1338;48.176;11.792;2024-01-06T01:44:50;9.23;;;7.07;;
2656;SDS011;1338;48.176;11.792;2024-01-06T01:47:18;9.30;;;6.90;;
2656;SDS011;1338;48.176;11.792;2024-01-06T01:49:47;8.80;;;7.00;;
2656;SDS011;1338;48.176;11.792;2024-01-06T01:52:16;10.60;;;6.60;;
2656;SDS011;1338;48.176;11.792;2024-01-06T01:54:45;7.40;;;5.97;;
2656;SDS011;1338;48.176;11.792;2024-01-06T01:57:15;7.20;;;5.73;;
2656;SDS011;1338;48.176;11.792;2024-01-06T01:59:44;7.53;;;6.57;;
2656;SDS011;1338;48.176;11.792;2024-01-06T02:02:13;7.10;;;6.10;;
2656;SDS011;1338;48.176;11.792;2024-01-06T02:04:42;7.40;;;5.57;;
2656;SDS011;1338;48.176;11.792;2024-01-06T02:07:12;9.70;;;5.93;;
2656;SDS011;1338;48.176;11.792;2024-01-06T02:09:40;7.43;;;5.70;;
2656;SDS011;1338;48.176;11.792;2024-01-06T02:12:08;6.07;;;5.20;;
2656;SDS011;1338;48.176;11.792;2024-01-06T02:14:38;5.90;;;5.30;;
2656;SDS011;1338;48.176;11.792;2024-01-06T02:17:06;5.63;;;4.50;;
2656;SDS011;1338;48.176;11.792;2024-01-06T02:19:34;5.60;;;4.83;;
2656;SDS011;1338;48.176;11.792;2024-01-06T02:22:04;6.63;;;5.20;;
2656;SDS011;1338;48.176;11.792;2024-01-06T02:24:32;5.07;;;4.50;;
2656;SDS011;1338;48.176;11.792;2024-01-06T02:27:00;8.63;;;6.37;;
2656;SDS011;1338;48.176;11.792;2024-01-06T02:29:28;6.60;;;6.00;;
2656;SDS011;1338;48.176;11.792;2024-01-06T02:31:56;13.70;;;9.03;;
2656;SDS011;1338;48.176;11.792;2024-01-06T02:34:25;16.67;;;13.00;;
2656;SDS011;1338;48.176;11.792;2024-01-06T02:36:53;16.97;;;12.70;;
2656;SDS011;1338;48.176;11.792;2024-01-06T02:39:23;11.13;;;7.33;;
2656;SDS011;1338;48.176;11.792;2024-01-06T02:41:51;6.47;;;5.00;;
2656;SDS011;1338;48.176;11.792;2024-01-06T02:44:19;6.80;;;5.20;;
2656;SDS011;1338;48.176;11.792;2024-01-06T02:46:47;6.63;;;5.20;;
2656;SDS011;1338;48.176;11.792;2024-01-06T02:49:15;9.57;;;7.27;;
2656;SDS011;1338;48.176;11.792;2024-01-06T02:51:43;18.87;;;13.10;;
2656;SDS011;1338;48.176;11.792;2024-01-06T02:54:12;36.20;;;22.73;;
2656;SDS011;1338;48.176;11.792;2024-01-06T02:56:41;9.10;;;7.60;;
2656;SDS011;1338;48.176;11.792;2024-01-06T02:59:09;23.33;;;17.07;;
2656;SDS011;1338;48.176;11.792;2024-01-06T03:01:38;16.37;;;11.80;;
2656;SDS011;1338;48.176;11.792;2024-01-06T03:04:06;10.50;;;6.60;;
2656;SDS011;1338;48.176;11.792;2024-01-06T03:06:35;7.93;;;5.53;;
2656;SDS011;1338;48.176;11.792;2024-01-06T03:09:03;6.50;;;5.27;;
2656;SDS011;1338;48.176;11.792;2024-01-06T03:11:31;7.00;;;4.83;;
2656;SDS011;1338;48.176;11.792;2024-01-06T03:14:01;6.23;;;5.50;;
2656;SDS011;1338;48.176;11.792;2024-01-06T03:16:29;6.50;;;5.20;;
2656;SDS011;1338;48.176;11.792;2024-01-06T03:18:57;4.43;;;4.03;;
2656;SDS011;1338;48.176;11.792;2024-01-06T03:21:26;4.47;;;4.07;;
2656;SDS011;1338;48.176;11.792;2024-01-06T03:23:54;19.47;;;13.07;;
2656;SDS011;1338;48.176;11.792;2024-01-06T03:26:22;19.90;;;11.87;;
2656;SDS011;1338;48.176;11.792;2024-01-06T03:28:50;7.80;;;6.07;;
2656;SDS011;1338;48.176;11.792;2024-01-06T03:31:20;5.90;;;5.40;;
2656;SDS011;1338;48.176;11.792;2024-01-06T03:33:49;7.63;;;5.97;;
2656;SDS011;1338;48.176;11.792;2024-01-06T03:36:18;6.40;;;5.47;;
2656;SDS011;1338;48.176;11.792;2024-01-06T03:38:46;6.40;;;5.80;;
2656;SDS011;1338;48.176;11.792;2024-01-06T03:41:14;6.50;;;5.67;;
2656;SDS011;1338;48.176;11.792;2024-01-06T03:43:42;5.40;;;4.23;;
2656;SDS011;1338;48.176;11.792;2024-01-06T03:46:10;6.37;;;4.20;;
2656;SDS011;1338;48.176;11.792;2024-01-06T03:48:40;4.50;;;4.10;;
2656;SDS011;1338;48.176;11.792;2024-01-06T03:51:09;3.70;;;3.20;;
2656;SDS011;1338;48.176;11.792;2024-01-06T03:53:38;5.33;;;3.83;;
2656;SDS011;1338;48.176;11.792;2024-01-06T03:56:06;4.20;;;3.80;;
2656;SDS011;1338;48.176;11.792;2024-01-06T03:58:34;3.67;;;3.33;;
2656;SDS011;1338;48.176;11.792;2024-01-06T04:01:02;4.00;;;3.23;;
2656;SDS011;1338;48.176;11.792;2024-01-06T04:03:31;4.27;;;3.87;;
2656;SDS011;1338;48.176;11.792;2024-01-06T04:06:00;3.73;;;3.43;;
2656;SDS011;1338;48.176;11.792;2024-01-06T04:08:29;4.53;;;4.10;;
2656;SDS011;1338;48.176;11.792;2024-01-06T04:10:57;3.70;;;3.10;;
2656;SDS011;1338;48.176;11.792;2024-01-06T04:13:25;4.23;;;3.83;;
2656;SDS011;1338;48.176;11.792;2024-01-06T04:15:53;4.53;;;4.10;;
2656;SDS011;1338;48.176;11.792;2024-01-06T04:18:22;5.63;;;5.00;;
2656;SDS011;1338;48.176;11.792;2024-01-06T04:20:50;8.60;;;5.47;;
2656;SDS011;1338;48.176;11.792;2024-01-06T04:23:20;5.70;;;5.10;;
2656;SDS011;1338;48.176;11.792;2024-01-06T04:25:51;9.90;;;6.67;;
2656;SDS011;1338;48.176;11.792;2024-01-06T04:28:19;8.80;;;6.50;;
2656;SDS011;1338;48.176;11.792;2024-01-06T04:30:47;6.93;;;5.60;;
2656;SDS011;1338;48.176;11.792;2024-01-06T04:33:16;6.60;;;5.67;;
2656;SDS011;1338;48.176;11.792;2024-01-06T04:35:44;6.27;;;5.33;;
2656;SDS011;1338;48.176;11.792;2024-01-06T04:38:12;5.70;;;5.20;;
2656;SDS011;1338;48.176;11.792;2024-01-06T04:40:42;5.70;;;5.03;;
2656;SDS011;1338;48.176;11.792;2024-01-06T04:43:10;5.73;;;5.17;;
2656;SDS011;1338;48.176;11.792;2024-01-06T04:45:39;4.93;;;4.43;;
2656;SDS011;1338;48.176;11.792;2024-01-06T04:48:07;4.73;;;4.33;;
2656;SDS011;1338;48.176;11.792;2024-01-06T04:50:35;3.20;;;2.90;;
2656;SDS011;1338;48.176;11.792;2024-01-06T04:53:03;3.73;;;3.37;;
2656;SDS011;1338;48.176;11.792;2024-01-06T04:55:31;3.90;;;3.50;;
2656;SDS011;1338;48.176;11.792;2024-01-06T04:58:01;3.67;;;3.37;;
2656;SDS011;1338;48.176;11.792;2024-01-06T05:00:29;4.20;;;3.80;;
2656;SDS011;1338;48.176;11.792;2024-01-06T05:02:57;3.83;;;3.50;;
2656;SDS011;1338;48.176;11.792;2024-01-06T05:05:26;4.40;;;3.60;;
2656;SDS011;1338;48.176;11.792;2024-01-06T05:07:54;3.40;;;3.10;;
2656;SDS011;1338;48.176;11.792;2024-01-06T05:10:22;3.70;;;3.40;;
2656;SDS011;1338;48.176;11.792;2024-01-06T05:12:50;2.83;;;2.63;;
2656;SDS011;1338;48.176;11.792;2024-01-06T05:15:20;2.90;;;2.60;;
2656;SDS011;1338;48.176;11.792;2024-01-06T05:17:48;2.73;;;2.53;;
2656;SDS011;1338;48.176;11.792;2024-01-06T05:20:16;3.20;;;2.77;;
2656;SDS011;1338;48.176;11.792;2024-01-06T05:22:44;3.93;;;3.00;;
2656;SDS011;1338;48.176;11.792;2024-01-06T05:25:12;2.83;;;2.63;;
2656;SDS011;1338;48.176;11.792;2024-01-06T05:27:41;2.27;;;2.07;;
2656;SDS011;1338;48.176;11.792;2024-01-06T05:30:09;2.13;;;1.77;;
2656;SDS011;1338;48.176;11.792;2024-01-06T05:32:40;1.90;;;1.80;;
2656;SDS011;1338;48.176;11.792;2024-01-06T05:35:08;2.17;;;1.70;;
2656;SDS011;1338;48.176;11.792;2024-01-06T05:37:37;2.00;;;1.83;;
2656;SDS011;1338;48.176;11.792;2024-01-06T05:40:06;2.07;;;1.93;;
2656;SDS011;1338;48.176;11.792;2024-01-06T05:42:34;1.50;;;1.40;;
2656;SDS011;1338;48.176;11.792;2024-01-06T05:45:03;1.67;;;1.57;;
2656;SDS011;1338;48.176;11.792;2024-01-06T05:47:32;1.63;;;1.40;;
2656;SDS011;1338;48.176;11.792;2024-01-06T05:50:01;1.47;;;1.30;;
2656;SDS011;1338;48.176;11.792;2024-01-06T05:52:29;1.93;;;1.40;;
2656;SDS011;1338;48.176;11.792;2024-01-06T05:54:57;1.60;;;1.50;;
2656;SDS011;1338;48.176;11.792;2024-01-06T05:57:26;1.23;;;1.13;;
2656;SDS011;1338;48.176;11.792;2024-01-06T05:59:54;1.30;;;1.20;;
2656;SDS011;1338;48.176;11.792;2024-01-06T06:02:22;1.30;;;1.10;;
2656;SDS011;1338;48.176;11.792;2024-01-06T06:04:50;1.50;;;1.40;;
2656;SDS011;1338;48.176;11.792;2024-01-06T06:07:20;1.60;;;1.50;;
2656;SDS011;1338;48.176;11.792;2024-01-06T06:09:49;1.27;;;1.17;;
2656;SDS011;1338;48.176;11.792;2024-01-06T06:12:19;1.70;;;1.50;;
2656;SDS011;1338;48.176;11.792;2024-01-06T06:14:47;1.53;;;1.37;;
2656;SDS011;1338;48.176;11.792;2024-01-06T06:17:15;1.50;;;1.40;;
2656;SDS011;1338;48.176;11.792;2024-01-06T06:19:45;1.73;;;1.60;;
2656;SDS011;1338;48.176;11.792;2024-01-06T06:22:13;2.17;;;1.97;;
2656;SDS011;1338;48.176;11.792;2024-01-06T06:24:43;2.10;;;1.90;;
2656;SDS011;1338;48.176;11.792;2024-01-06T06:27:11;2.20;;;2.00;;
2656;SDS011;1338;48.176;11.792;2024-01-06T06:29:39;2.47;;;2.10;;
2656;SDS011;1338;48.176;11.792;2024-01-06T06:32:08;2.57;;;2.20;;
2656;SDS011;1338;48.176;11.792;2024-01-06T06:34:36;2.03;;;1.83;;
2656;SDS011;1338;48.176;11.792;2024-01-06T06:37:04;2.60;;;2.40;;
2656;SDS011;1338;48.176;11.792;2024-01-06T06:39:33;2.10;;;1.90;;
2656;SDS011;1338;48.176;11.792;2024-01-06T06:42:03;2.67;;;2.47;;
2656;SDS011;1338;48.176;11.792;2024-01-06T06:44:32;2.63;;;2.33;;
2656;SDS011;1338;48.176;11.792;2024-01-06T06:47:00;2.93;;;2.60;;
2656;SDS011;1338;48.176;11.792;2024-01-06T06:49:28;3.77;;;2.60;;
2656;SDS011;1338;48.176;11.792;2024-01-06T06:51:56;2.57;;;2.37;;
2656;SDS011;1338;48.176;11.792;2024-01-06T06:54:24;2.70;;;2.40;;
2656;SDS011;1338;48.176;11.792;2024-01-06T06:56:53;4.50;;;3.17;;
2656;SDS011;1338;48.176;11.792;2024-01-06T06:59:22;3.70;;;3.30;;
2656;SDS011;1338;48.176;11.792;2024-01-06T07:01:51;7.17;;;3.50;;
2656;SDS011;1338;48.176;11.792;2024-01-06T07:04:19;3.47;;;3.07;;
2656;SDS011;1338;48.176;11.792;2024-01-06T07:06:49;5.07;;;4.07;;
2656;SDS011;1338;48.176;11.792;2024-01-06T07:09:18;3.90;;;3.60;;
2656;SDS011;1338;48.176;11.792;2024-01-06T07:11:49;3.77;;;3.47;;
2656;SDS011;1338;48.176;11.792;2024-01-06T07:14:18;3.67;;;3.37;;
2656;SDS011;1338;48.176;11.792;2024-01-06T07:16:47;4.50;;;4.10;;
2656;SDS011;1338;48.176;11.792;2024-01-06T07:19:15;4.80;;;4.10;;
2656;SDS011;1338;48.176;11.792;2024-01-06T07:21:44;5.60;;;3.90;;
2656;SDS011;1338;48.176;11.792;2024-01-06T07:24:12;4.33;;;3.93;;
2656;SDS011;1338;48.176;11.792;2024-01-06T07:26:41;4.53;;;3.80;;
2656;SDS011;1338;48.176;11.792;2024-01-06T07:29:09;4.60;;;3.20;;
2656;SDS011;1338;48.176;11.792;2024-01-06T07:31:37;3.80;;;3.40;;
2656;SDS011;1338;48.176;11.792;2024-01-06T07:34:07;4.87;;;3.53;;
2656;SDS011;1338;48.176;11.792;2024-01-06T07:36:36;4.03;;;3.40;;
2656;SDS011;1338;48.176;11.792;2024-01-06T07:39:04;3.80;;;3.50;;
2656;SDS011;1338;48.176;11.792;2024-01-06T07:41:33;4.60;;;3.20;;
2656;SDS011;1338;48.176;11.792;2024-01-06T07:44:01;4.10;;;3.70;;
2656;SDS011;1338;48.176;11.792;2024-01-06T07:46:29;5.20;;;3.23;;
2656;SDS011;1338;48.176;11.792;2024-01-06T07:48:58;4.33;;;2.90;;
2656;SDS011;1338;48.176;11.792;2024-01-06T07:51:28;3.80;;;3.50;;
2656;SDS011;1338;48.176;11.792;2024-01-06T07:53:57;4.43;;;3.90;;
2656;SDS011;1338;48.176;11.792;2024-01-06T07:56:25;4.00;;;3.60;;
2656;SDS011;1338;48.176;11.792;2024-01-06T07:58:53;4.60;;;4.10;;
2656;SDS011;1338;48.176;11.792;2024-01-06T08:01:22;5.73;;;5.00;;
2656;SDS011;1338;48.176;11.792;2024-01-06T08:03:50;5.13;;;3.93;;
2656;SDS011;1338;48.176;11.792;2024-01-06T08:06:18;4.33;;;3.93;;
2656;SDS011;1338;48.176;11.792;2024-01-06T08:08:48;3.87;;;3.57;;
2656;SDS011;1338;48.176;11.792;2024-01-06T08:11:16;4.63;;;4.23;;
2656;SDS011;1338;48.176;11.792;2024-01-06T08:13:44;5.10;;;4.43;;
2656;SDS011;1338;48.176;11.792;2024-01-06T08:16:12;5.20;;;4.17;;
2656;SDS011;1338;48.176;11.792;2024-01-06T08:18:41;6.40;;;5.77;;
2656;SDS011;1338;48.176;11.792;2024-01-06T08:21:09;5.53;;;4.90;;
2656;SDS011;1338;48.176;11.792;2024-01-06T08:23:37;5.97;;;5.37;;
2656;SDS011;1338;48.176;11.792;2024-01-06T08:26:08;6.03;;;4.87;;
2656;SDS011;1338;48.176;11.792;2024-01-06T08:28:39;5.43;;;4.93;;
2656;SDS011;1338;48.176;11.792;2024-01-06T08:31:07;5.60;;;5.03;;
2656;SDS011;1338;48.176;11.792;2024-01-06T08:33:35;5.17;;;4.67;;
2656;SDS011;1338;48.176;11.792;2024-01-06T08:36:04;5.60;;;4.03;;
2656;SDS011;1338;48.176;11.792;2024-01-06T08:38:33;5.83;;;4.80;;
2656;SDS011;1338;48.176;11.792;2024-01-06T08:41:02;5.33;;;4.83;;
2656;SDS011;1338;48.176;11.792;2024-01-06T08:43:31;5.77;;;4.93;;
2656;SDS011;1338;48.176;11.792;2024-01-06T08:46:00;6.90;;;5.00;;
2656;SDS011;1338;48.176;11.792;2024-01-06T08:48:28;5.57;;;4.73;;
2656;SDS011;1338;48.176;11.792;2024-01-06T08:51:01;6.17;;;5.57;;
2656;SDS011;1338;48.176;11.792;2024-01-06T08:53:29;6.17;;;5.10;;
2656;SDS011;1338;48.176;11.792;2024-01-06T08:55:57;6.57;;;4.87;;
2656;SDS011;1338;48.176;11.792;2024-01-06T08:58:25;5.13;;;4.63;;
2656;SDS011;1338;48.176;11.792;2024-01-06T09:00:55;5.30;;;4.80;;
2656;SDS011;1338;48.176;11.792;2024-01-06T09:03:23;5.27;;;4.73;;
2656;SDS011;1338;48.176;11.792;2024-01-06T09:05:53;4.40;;;4.00;;
2656;SDS011;1338;48.176;11.792;2024-01-06T09:08:23;4.50;;;4.10;;
2656;SDS011;1338;48.176;11.792;2024-01-06T09:10:51;4.10;;;3.80;;
2656;SDS011;1338;48.176;11.792;2024-01-06T09:13:23;4.27;;;3.87;;
2656;SDS011;1338;48.176;11.792;2024-01-06T09:15:51;3.80;;;3.50;;
2656;SDS011;1338;48.176;11.792;2024-01-06T09:18:21;3.23;;;2.93;;
2656;SDS011;1338;48.176;11.792;2024-01-06T09:20:50;5.10;;;3.80;;
2656;SDS011;1338;48.176;11.792;2024-01-06T09:23:19;4.90;;;4.00;;
2656;SDS011;1338;48.176;11.792;2024-01-06T09:25:50;4.67;;;4.27;;
2656;SDS011;1338;48.176;11.792;2024-01-06T09:28:19;4.53;;;3.43;;
2656;SDS011;1338;48.176;11.792;2024-01-06T09:30:48;3.80;;;3.50;;
2656;SDS011;1338;48.176;11.792;2024-01-06T09:33:19;4.00;;;3.60;;
2656;SDS011;1338;48.176;11.792;2024-01-06T09:35:48;3.37;;;3.07;;
2656;SDS011;1338;48.176;11.792;2024-01-06T09:38:17;4.80;;;3.40;;
2656;SDS011;1338;48.176;11.792;2024-01-06T09:40:46;3.87;;;3.23;;
2656;SDS011;1338;48.176;11.792;2024-01-06T09:43:15;4.53;;;3.43;;
2656;SDS011;1338;48.176;11.792;2024-01-06T09:45:44;3.63;;;3.33;;
2656;SDS011;1338;48.176;11.792;2024-01-06T09:48:15;3.70;;;3.30;;
2656;SDS011;1338;48.176;11.792;2024-01-06T09:50:45;4.60;;;3.17;;
2656;SDS011;1338;48.176;11.792;2024-01-06T09:53:15;5.33;;;3.10;;
2656;SDS011;1338;48.176;11.792;2024-01-06T09:55:45;3.37;;;3.07;;
2656;SDS011;1338;48.176;11.792;2024-01-06T09:58:18;3.90;;;3.20;;
2656;SDS011;1338;48.176;11.792;2024-01-06T10:00:47;5.10;;;2.90;;
2656;SDS011;1338;48.176;11.792;2024-01-06T10:03:16;5.77;;;3.30;;
2656;SDS011;1338;48.176;11.792;2024-01-06T10:05:45;4.13;;;3.53;;
2656;SDS011;1338;48.176;11.792;2024-01-06T10:08:16;3.40;;;3.10;;
2656;SDS011;1338;48.176;11.792;2024-01-06T10:10:45;4.70;;;3.40;;
2656;SDS011;1338;48.176;11.792;2024-01-06T10:13:16;4.40;;;3.37;;
2656;SDS011;1338;48.176;11.792;2024-01-06T10:15:44;4.50;;;3.80;;
2656;SDS011;1338;48.176;11.792;2024-01-06T10:18:13;4.50;;;3.70;;
2656;SDS011;1338;48.176;11.792;2024-01-06T10:20:41;4.57;;;4.03;;
2656;SDS011;1338;48.176;11.792;2024-01-06T10:23:11;4.70;;;3.60;;
2656;SDS011;1338;48.176;11.792;2024-01-06T10:25:40;4.70;;;3.77;;
2656;SDS011;1338;48.176;11.792;2024-01-06T10:28:11;4.00;;;3.50;;
2656;SDS011;1338;48.176;11.792;2024-01-06T10:30:40;3.70;;;3.40;;
2656;SDS011;1338;48.176;11.792;2024-01-06T10:33:09;4.43;;;3.17;;
2656;SDS011;1338;48.176;11.792;2024-01-06T10:35:40;5.30;;;3.53;;
2656;SDS011;1338;48.176;11.792;2024-01-06T10:38:09;7.40;;;3.90;;
2656;SDS011;1338;48.176;11.792;2024-01-06T10:40:38;7.10;;;3.70;;
2656;SDS011;1338;48.176;11.792;2024-01-06T10:43:23;6.40;;;4.00;;
2656;SDS011;1338;48.176;11.792;2024-01-06T10:45:53;4.27;;;3.87;;
2656;SDS011;1338;48.176;11.792;2024-01-06T10:48:24;5.30;;;3.93;;
2656;SDS011;1338;48.176;11.792;2024-01-06T10:50:53;5.40;;;3.93;;
2656;SDS011;1338;48.176;11.792;2024-01-06T10:53:23;6.07;;;4.60;;
2656;SDS011;1338;48.176;11.792;2024-01-06T10:55:54;4.50;;;4.10;;
2656;SDS011;1338;48.176;11.792;2024-01-06T10:58:22;4.93;;;4.10;;
2656;SDS011;1338;48.176;11.792;2024-01-06T11:00:51;4.07;;;3.70;;
2656;SDS011;1338;48.176;11.792;2024-01-06T11:03:22;4.40;;;4.00;;
2656;SDS011;1338;48.176;11.792;2024-01-06T11:05:52;6.17;;;4.20;;
2656;SDS011;1338;48.176;11.792;2024-01-06T11:08:20;5.63;;;4.57;;
2656;SDS011;1338;48.176;11.792;2024-01-06T11:10:50;4.50;;;4.10;;
2656;SDS011;1338;48.176;11.792;2024-01-06T11:13:22;4.50;;;4.00;;
2656;SDS011;1338;48.176;11.792;2024-01-06T11:15:53;5.83;;;4.30;;
2656;SDS011;1338;48.176;11.792;2024-01-06T11:18:31;7.90;;;4.80;;
2656;SDS011;1338;48.176;11.792;2024-01-06T11:21:14;5.40;;;4.83;;
2656;SDS011;1338;48.176;11.792;2024-01-06T11:23:45;6.83;;;4.63;;
2656;SDS011;1338;48.176;11.792;2024-01-06T11:26:14;5.10;;;4.20;;
2656;SDS011;1338;48.176;11.792;2024-01-06T11:28:45;6.93;;;5.17;;
2656;SDS011;1338;48.176;11.792;2024-01-06T11:31:13;6.57;;;5.07;;
2656;SDS011;1338;48.176;11.792;2024-01-06T11:33:42;6.20;;;4.87;;
2656;SDS011;1338;48.176;11.792;2024-01-06T11:36:11;6.37;;;5.20;;
2656;SDS011;1338;48.176;11.792;2024-01-06T11:38:41;6.83;;;5.50;;
2656;SDS011;1338;48.176;11.792;2024-01-06T11:41:44;6.60;;;5.80;;
2656;SDS011;1338;48.176;11.792;2024-01-06T11:44:19;11.07;;;6.10;;
2656;SDS011;1338;48.176;11.792;2024-01-06T11:46:48;6.73;;;5.03;;
2656;SDS011;1338;48.176;11.792;2024-01-06T11:49:16;8.17;;;6.00;;
2656;SDS011;1338;48.176;11.792;2024-01-06T11:51:48;5.53;;;4.93;;
2656;SDS011;1338;48.176;11.792;2024-01-06T11:54:16;7.47;;;5.10;;
2656;SDS011;1338;48.176;11.792;2024-01-06T11:56:47;6.90;;;6.20;;
2656;SDS011;1338;48.176;11.792;2024-01-06T11:59:15;8.17;;;6.30;;
2656;SDS011;1338;48.176;11.792;2024-01-06T12:01:45;7.53;;;6.63;;
2656;SDS011;1338;48.176;11.792;2024-01-06T12:04:14;8.47;;;5.90;;
2656;SDS011;1338;48.176;11.792;2024-01-06T12:06:42;7.70;;;4.90;;
2656;SDS011;1338;48.176;11.792;2024-01-06T12:09:11;6.40;;;5.80;;
2656;SDS011;1338;48.176;11.792;2024-01-06T12:11:41;9.40;;;5.93;;
2656;SDS011;1338;48.176;11.792;2024-01-06T12:14:11;10.20;;;7.13;;
2656;SDS011;1338;48.176;11.792;2024-01-06T12:16:39;7.73;;;6.67;;
2656;SDS011;1338;48.176;11.792;2024-01-06T12:19:09;8.77;;;6.70;;
2656;SDS011;1338;48.176;11.792;2024-01-06T12:21:37;7.80;;;6.20;;
2656;SDS011;1338;48.176;11.792;2024-01-06T12:24:12;7.07;;;6.20;;
2656;SDS011;1338;48.176;11.792;2024-01-06T12:26:43;8.17;;;6.83;;
2656;SDS011;1338;48.176;11.792;2024-01-06T12:29:12;6.97;;;6.00;;
2656;SDS011;1338;48.176;11.792;2024-01-06T12:31:40;8.23;;;6.93;;
2656;SDS011;1338;48.176;11.792;2024-01-06T12:34:10;8.30;;;6.23;;
2656;SDS011;1338;48.176;11.792;2024-01-06T12:36:39;9.17;;;7.07;;
2656;SDS011;1338;48.176;11.792;2024-01-06T12:39:10;8.53;;;6.60;;
2656;SDS011;1338;48.176;11.792;2024-01-06T12:41:40;7.47;;;6.43;;
2656;SDS011;1338;48.176;11.792;2024-01-06T12:44:09;8.50;;;6.67;;
2656;SDS011;1338;48.176;11.792;2024-01-06T12:46:37;8.53;;;6.40;;
2656;SDS011;1338;48.176;11.792;2024-01-06T12:49:05;8.13;;;7.33;;
2656;SDS011;1338;48.176;11.792;2024-01-06T12:51:35;9.70;;;6.97;;
2656;SDS011;1338;48.176;11.792;2024-01-06T12:54:03;6.70;;;6.00;;
2656;SDS011;1338;48.176;11.792;2024-01-06T12:56:31;6.73;;;5.93;;
2656;SDS011;1338;48.176;11.792;2024-01-06T12:59:00;7.17;;;5.90;;
2656;SDS011;1338;48.176;11.792;2024-01-06T13:01:28;8.60;;;5.97;;
2656;SDS011;1338;48.176;11.792;2024-01-06T13:03:57;7.73;;;5.63;;
2656;SDS011;1338;48.176;11.792;2024-01-06T13:06:27;8.73;;;5.97;;
2656;SDS011;1338;48.176;11.792;2024-01-06T13:08:57;7.33;;;6.63;;
2656;SDS011;1338;48.176;11.792;2024-01-06T13:11:25;7.63;;;6.83;;
2656;SDS011;1338;48.176;11.792;2024-01-06T13:13:54;6.50;;;5.23;;
2656;SDS011;1338;48.176;11.792;2024-01-06T13:16:22;8.20;;;5.90;;
2656;SDS011;1338;48.176;11.792;2024-01-06T13:18:51;8.80;;;6.60;;
2656;SDS011;1338;48.176;11.792;2024-01-06T13:21:21;6.53;;;5.63;;
2656;SDS011;1338;48.176;11.792;2024-01-06T13:23:50;8.90;;;7.30;;
2656;SDS011;1338;48.176;11.792;2024-01-06T13:26:20;8.43;;;5.60;;
2656;SDS011;1338;48.176;11.792;2024-01-06T13:28:48;8.03;;;7.00;;
2656;SDS011;1338;48.176;11.792;2024-01-06T13:31:16;8.90;;;6.17;;
2656;SDS011;1338;48.176;11.792;2024-01-06T13:33:45;7.83;;;5.40;;
2656;SDS011;1338;48.176;11.792;2024-01-06T13:36:13;8.27;;;6.87;;
2656;SDS011;1338;48.176;11.792;2024-01-06T13:38:44;7.37;;;6.57;;
2656;SDS011;1338;48.176;11.792;2024-01-06T13:41:12;8.30;;;6.80;;
2656;SDS011;1338;48.176;11.792;2024-01-06T13:43:42;9.17;;;7.37;;
2656;SDS011;1338;48.176;11.792;2024-01-06T13:46:10;6.87;;;6.20;;
2656;SDS011;1338;48.176;11.792;2024-01-06T13:48:40;8.73;;;6.60;;
2656;SDS011;1338;48.176;11.792;2024-01-06T13:51:08;8.67;;;6.87;;
2656;SDS011;1338;48.176;11.792;2024-01-06T13:53:36;9.23;;;7.47;;
2656;SDS011;1338;48.176;11.792;2024-01-06T13:56:05;8.17;;;7.20;;
2656;SDS011;1338;48.176;11.792;2024-01-06T13:58:34;8.40;;;6.43;;
2656;SDS011;1338;48.176;11.792;2024-01-06T14:01:04;8.33;;;6.87;;
2656;SDS011;1338;48.176;11.792;2024-01-06T14:03:35;9.70;;;7.40;;
2656;SDS011;1338;48.176;11.792;2024-01-06T14:06:03;9.13;;;6.57;;
2656;SDS011;1338;48.176;11.792;2024-01-06T14:08:32;9.73;;;6.87;;
2656;SDS011;1338;48.176;11.792;2024-01-06T14:11:01;10.10;;;7.07;;
2656;SDS011;1338;48.176;11.792;2024-01-06T14:13:29;9.40;;;6.37;;
2656;SDS011;1338;48.176;11.792;2024-01-06T14:15:59;7.97;;;7.17;;
2656;SDS011;1338;48.176;11.792;2024-01-06T14:18:29;7.90;;;7.03;;
2656;SDS011;1338;48.176;11.792;2024-01-06T14:20:57;8.37;;;7.57;;
2656;SDS011;1338;48.176;11.792;2024-01-06T14:23:26;10.50;;;7.73;;
2656;SDS011;1338;48.176;11.792;2024-01-06T14:25:56;9.97;;;7.20;;
2656;SDS011;1338;48.176;11.792;2024-01-06T14:28:24;9.67;;;8.40;;
2656;SDS011;1338;48.176;11.792;2024-01-06T14:30:53;9.70;;;8.47;;
2656;SDS011;1338;48.176;11.792;2024-01-06T14:33:22;10.70;;;7.27;;
2656;SDS011;1338;48.176;11.792;2024-01-06T14:35:52;7.77;;;6.87;;
2656;SDS011;1338;48.176;11.792;2024-01-06T14:38:20;7.70;;;6.90;;
2656;SDS011;1338;48.176;11.792;2024-01-06T14:40:48;7.57;;;6.77;;
2656;SDS011;1338;48.176;11.792;2024-01-06T14:43:16;7.60;;;6.60;;
2656;SDS011;1338;48.176;11.792;2024-01-06T14:45:44;7.83;;;6.47;;
2656;SDS011;1338;48.176;11.792;2024-01-06T14:48:12;7.57;;;6.77;;
2656;SDS011;1338;48.176;11.792;2024-01-06T14:50:41;7.20;;;6.30;;
2656;SDS011;1338;48.176;11.792;2024-01-06T14:53:10;7.37;;;6.03;;
2656;SDS011;1338;48.176;11.792;2024-01-06T14:55:39;8.93;;;7.33;;
2656;SDS011;1338;48.176;11.792;2024-01-06T14:58:07;8.80;;;7.80;;
2656;SDS011;1338;48.176;11.792;2024-01-06T15:00:35;7.70;;;6.90;;
2656;SDS011;1338;48.176;11.792;2024-01-06T15:03:04;8.20;;;6.67;;
2656;SDS011;1338;48.176;11.792;2024-01-06T15:05:32;8.03;;;6.90;;
2656;SDS011;1338;48.176;11.792;2024-01-06T15:08:00;9.03;;;6.60;;